createdAt,value
2022-10-30T00:00:55.524Z,5.25
2022-10-30T00:03:24.421Z,4.95
2022-10-30T00:05:53.064Z,5.03
2022-10-30T00:08:25.504Z,4.57
2022-10-30T00:10:54.388Z,5.07
2022-10-30T00:13:23.253Z,5.40
2022-10-30T00:15:55.077Z,4.18
2022-10-30T00:18:23.649Z,4.85
2022-10-30T00:20:52.024Z,4.47
2022-10-30T00:23:20.522Z,4.65
2022-10-30T00:25:49.001Z,4.80
2022-10-30T00:28:17.219Z,5.40
2022-10-30T00:30:45.484Z,4.82
2022-10-30T00:33:15.233Z,4.62
2022-10-30T00:35:49.628Z,4.35
2022-10-30T00:38:18.094Z,4.72
2022-10-30T00:40:46.382Z,4.45
2022-10-30T00:43:32.884Z,4.47
2022-10-30T00:46:06.056Z,4.97
2022-10-30T00:48:36.176Z,5.25
2022-10-30T00:51:09.589Z,5.00
2022-10-30T00:53:38.885Z,5.20
2022-10-30T00:56:09.762Z,4.90
2022-10-30T00:58:44.370Z,5.03
2022-10-30T01:01:18.569Z,5.25
2022-10-30T01:03:51.566Z,4.70
2022-10-30T01:06:20.527Z,5.05
2022-10-30T01:08:50.088Z,4.53
2022-10-30T01:11:21.088Z,5.90
2022-10-30T01:13:51.512Z,5.55
2022-10-30T01:16:33.205Z,4.62
2022-10-30T01:19:13.496Z,5.32
2022-10-30T01:21:56.486Z,5.30
2022-10-30T01:24:36.040Z,4.37
2022-10-30T01:27:18.644Z,5.15
2022-10-30T01:29:56.973Z,5.55
2022-10-30T01:32:41.810Z,5.97
2022-10-30T01:35:16.131Z,5.18
2022-10-30T01:37:51.692Z,5.07
2022-10-30T01:40:21.281Z,5.95
2022-10-30T01:42:52.537Z,5.03
2022-10-30T01:45:42.910Z,5.10
2022-10-30T01:48:48.765Z,4.95
2022-10-30T01:51:28.483Z,4.07
2022-10-30T01:54:09.787Z,5.05
2022-10-30T01:56:45.013Z,4.30
2022-10-30T01:59:18.931Z,4.97
2022-10-30T02:01:48.598Z,4.60
2022-10-30T02:04:17.766Z,5.07
2022-10-30T02:06:47.673Z,4.87
2022-10-30T02:09:17.329Z,4.50
2022-10-30T02:11:48.031Z,4.93
2022-10-30T02:14:21.723Z,4.75
2022-10-30T02:16:53.897Z,4.65
2022-10-30T02:19:22.160Z,4.53
2022-10-30T02:21:52.583Z,4.35
2022-10-30T02:24:21.406Z,4.40
2022-10-30T02:26:50.030Z,4.32
2022-10-30T02:29:20.706Z,4.80
2022-10-30T02:31:49.298Z,4.60
2022-10-30T02:34:18.248Z,5.22
2022-10-30T02:36:46.387Z,5.32
2022-10-30T02:39:16.197Z,4.47
2022-10-30T02:41:44.838Z,4.00
2022-10-30T02:44:13.584Z,4.60
2022-10-30T02:46:41.968Z,4.18
2022-10-30T02:49:10.451Z,4.30
2022-10-30T02:51:38.663Z,4.47
2022-10-30T02:54:06.949Z,4.55
2022-10-30T02:56:36.819Z,5.30
2022-10-30T02:59:05.054Z,4.28
2022-10-30T03:01:33.453Z,4.90
2022-10-30T03:04:02.173Z,4.32
2022-10-30T03:06:30.364Z,5.12
2022-10-30T03:08:59.327Z,4.15
2022-10-30T03:11:28.149Z,4.40
2022-10-30T03:13:57.985Z,4.07
2022-10-30T03:16:29.428Z,4.85
2022-10-30T03:18:59.240Z,4.70
2022-10-30T03:21:29.070Z,3.80
2022-10-30T03:23:58.224Z,4.72
2022-10-30T03:26:26.883Z,3.75
2022-10-30T03:28:55.152Z,4.37
2022-10-30T03:31:25.272Z,4.97
2022-10-30T03:33:53.978Z,5.25
2022-10-30T03:36:22.257Z,4.12
2022-10-30T03:38:50.990Z,4.22
2022-10-30T03:41:19.452Z,4.60
2022-10-30T03:43:47.991Z,5.30
2022-10-30T03:46:16.454Z,4.85
2022-10-30T03:48:49.987Z,5.03
2022-10-30T03:51:18.875Z,4.82
2022-10-30T03:53:47.909Z,4.87
2022-10-30T03:56:16.228Z,5.37
2022-10-30T03:58:45.267Z,5.30
2022-10-30T04:01:13.971Z,4.78
2022-10-30T04:03:43.519Z,4.60
2022-10-30T04:06:13.874Z,4.20
2022-10-30T04:08:42.500Z,4.35
2022-10-30T04:11:12.080Z,4.57
2022-10-30T04:13:40.810Z,4.57
2022-10-30T04:16:09.356Z,4.47
2022-10-30T04:18:37.571Z,4.62
2022-10-30T04:21:07.148Z,4.20
2022-10-30T04:23:37.074Z,4.18
2022-10-30T04:26:05.656Z,4.15
2022-10-30T04:28:33.986Z,4.95
2022-10-30T04:31:02.544Z,4.10
2022-10-30T04:33:32.177Z,4.10
2022-10-30T04:36:00.666Z,4.62
2022-10-30T04:38:29.238Z,4.65
2022-10-30T04:40:58.896Z,4.37
2022-10-30T04:43:28.755Z,5.07
2022-10-30T04:45:57.208Z,4.20
2022-10-30T04:48:25.567Z,4.07
2022-10-30T04:50:55.280Z,4.20
2022-10-30T04:53:24.085Z,4.28
2022-10-30T04:55:55.456Z,4.07
2022-10-30T04:58:25.418Z,4.37
2022-10-30T05:00:56.712Z,4.18
2022-10-30T05:03:29.129Z,4.68
2022-10-30T05:05:59.783Z,4.68
2022-10-30T05:08:28.269Z,4.65
2022-10-30T05:10:57.163Z,4.32
2022-10-30T05:13:26.986Z,3.95
2022-10-30T05:15:56.102Z,3.70
2022-10-30T05:18:24.760Z,4.00
2022-10-30T05:20:52.899Z,3.85
2022-10-30T05:23:21.101Z,4.10
2022-10-30T05:25:49.689Z,4.30
2022-10-30T05:28:18.030Z,4.18
2022-10-30T05:30:48.267Z,4.53
2022-10-30T05:33:18.725Z,3.87
2022-10-30T05:35:47.123Z,4.12
2022-10-30T05:38:15.441Z,4.78
2022-10-30T05:40:47.903Z,4.45
2022-10-30T05:43:16.390Z,4.87
2022-10-30T05:45:45.067Z,4.25
2022-10-30T05:48:14.713Z,4.80
2022-10-30T05:50:43.453Z,4.00
2022-10-30T05:53:12.174Z,4.20
2022-10-30T05:55:40.691Z,4.50
2022-10-30T05:58:11.212Z,4.05
2022-10-30T06:00:40.765Z,4.45
2022-10-30T06:03:12.311Z,4.85
2022-10-30T06:05:46.142Z,4.35
2022-10-30T06:08:17.084Z,4.55
2022-10-30T06:10:46.229Z,4.43
2022-10-30T06:13:14.787Z,4.20
2022-10-30T06:15:43.475Z,3.70
2022-10-30T06:18:12.069Z,4.78
2022-10-30T06:20:44.050Z,4.40
2022-10-30T06:23:15.795Z,5.30
2022-10-30T06:25:44.732Z,4.10
2022-10-30T06:28:14.293Z,4.18
2022-10-30T06:30:45.267Z,4.78
2022-10-30T06:33:13.888Z,3.90
2022-10-30T06:35:44.819Z,4.45
2022-10-30T06:38:17.451Z,4.80
2022-10-30T06:40:49.125Z,4.50
2022-10-30T06:43:18.339Z,4.32
2022-10-30T06:45:47.318Z,4.25
2022-10-30T06:48:15.718Z,4.10
2022-10-30T06:50:45.983Z,4.50
2022-10-30T06:53:14.436Z,4.80
2022-10-30T06:55:43.011Z,4.65
2022-10-30T06:58:11.393Z,4.35
2022-10-30T07:00:40.065Z,3.83
2022-10-30T07:03:09.682Z,4.07
2022-10-30T07:05:38.002Z,3.33
2022-10-30T07:08:07.874Z,3.97
2022-10-30T07:10:36.104Z,4.00
2022-10-30T07:13:05.985Z,3.47
2022-10-30T07:15:35.071Z,4.37
2022-10-30T07:18:05.507Z,4.35
2022-10-30T07:20:40.306Z,3.87
2022-10-30T07:23:11.994Z,4.10
2022-10-30T07:25:40.312Z,4.00
2022-10-30T07:28:08.882Z,3.80
2022-10-30T07:30:37.807Z,3.25
2022-10-30T07:33:08.519Z,3.42
2022-10-30T07:35:38.353Z,3.50
2022-10-30T07:38:11.019Z,3.80
2022-10-30T07:40:41.452Z,3.87
2022-10-30T07:43:13.239Z,4.50
2022-10-30T07:45:41.980Z,3.83
2022-10-30T07:48:13.112Z,3.90
2022-10-30T07:50:41.812Z,4.03
2022-10-30T07:53:10.075Z,3.90
2022-10-30T07:55:38.507Z,3.55
2022-10-30T07:58:09.941Z,3.97
2022-10-30T08:00:39.166Z,4.18
2022-10-30T08:03:08.257Z,3.83
2022-10-30T08:05:38.277Z,4.05
2022-10-30T08:08:07.616Z,3.90
2022-10-30T08:10:36.711Z,3.97
2022-10-30T08:13:05.050Z,4.22
2022-10-30T08:15:34.664Z,4.55
2022-10-30T08:18:03.794Z,4.70
2022-10-30T08:20:32.180Z,4.00
2022-10-30T08:23:00.932Z,4.00
2022-10-30T08:25:31.484Z,3.53
2022-10-30T08:28:02.206Z,3.30
2022-10-30T08:30:34.334Z,3.53
2022-10-30T08:33:06.457Z,3.22
2022-10-30T08:35:39.056Z,4.10
2022-10-30T08:38:07.428Z,3.95
2022-10-30T08:40:35.718Z,4.20
2022-10-30T08:43:04.510Z,3.25
2022-10-30T08:45:33.082Z,3.35
2022-10-30T08:48:04.269Z,3.90
2022-10-30T08:50:37.054Z,3.20
2022-10-30T08:53:08.002Z,3.70
2022-10-30T08:55:36.778Z,3.67
2022-10-30T08:58:05.542Z,3.92
2022-10-30T09:00:34.229Z,4.62
2022-10-30T09:03:07.023Z,4.45
2022-10-30T09:05:39.198Z,3.62
2022-10-30T09:08:09.829Z,3.25
2022-10-30T09:10:40.399Z,3.95
2022-10-30T09:13:10.388Z,3.47
2022-10-30T09:15:38.715Z,4.00
2022-10-30T09:18:07.274Z,3.87
2022-10-30T09:20:35.721Z,3.25
2022-10-30T09:23:06.362Z,3.12
2022-10-30T09:25:34.801Z,3.78
2022-10-30T09:28:03.756Z,3.08
2022-10-30T09:30:35.170Z,2.72
2022-10-30T09:33:04.628Z,4.18
2022-10-30T09:35:37.191Z,3.15
2022-10-30T09:38:07.243Z,2.90
2022-10-30T09:40:49.517Z,3.92
2022-10-30T09:43:29.590Z,3.50
2022-10-30T09:46:12.496Z,3.00
2022-10-30T09:49:10.963Z,3.05
2022-10-30T09:52:15.292Z,3.35
2022-10-30T09:54:57.045Z,3.25
2022-10-30T09:57:35.305Z,10.30
2022-10-30T10:00:07.313Z,3.37
2022-10-30T10:02:57.691Z,2.95
2022-10-30T10:05:41.117Z,2.80
2022-10-30T10:08:15.601Z,6.72
2022-10-30T10:10:53.144Z,3.03
2022-10-30T10:13:31.330Z,2.95
2022-10-30T10:16:04.360Z,2.60
2022-10-30T10:18:38.773Z,2.20
2022-10-30T10:21:15.168Z,2.75
2022-10-30T10:23:49.373Z,2.25
2022-10-30T10:26:28.690Z,2.65
2022-10-30T10:29:10.122Z,2.35
2022-10-30T10:31:47.688Z,2.40
2022-10-30T10:34:38.238Z,2.50
2022-10-30T10:37:16.179Z,2.50
2022-10-30T10:40:13.497Z,2.85
2022-10-30T10:42:57.928Z,2.30
2022-10-30T10:45:34.473Z,2.55
2022-10-30T10:48:42.243Z,2.35
2022-10-30T10:51:14.980Z,2.35
2022-10-30T10:53:47.351Z,2.50
2022-10-30T10:56:15.832Z,2.30
2022-10-30T10:58:52.732Z,2.33
2022-10-30T11:01:29.216Z,2.87
2022-10-30T11:04:01.320Z,2.30
2022-10-30T11:06:33.444Z,2.47
2022-10-30T11:09:16.456Z,2.55
2022-10-30T11:11:44.758Z,2.30
2022-10-30T11:14:17.834Z,2.53
2022-10-30T11:17:04.607Z,2.50
2022-10-30T11:19:33.906Z,2.00
2022-10-30T11:22:02.351Z,2.20
2022-10-30T11:24:32.695Z,2.25
2022-10-30T11:27:19.530Z,1.98
2022-10-30T11:29:53.965Z,2.25
2022-10-30T11:32:23.676Z,1.92
2022-10-30T11:35:03.961Z,2.58
2022-10-30T11:37:34.269Z,2.87
2022-10-30T11:40:05.926Z,2.37
2022-10-30T11:42:35.843Z,2.08
2022-10-30T11:45:07.202Z,2.83
2022-10-30T11:47:38.476Z,2.35
2022-10-30T11:50:16.844Z,1.95
2022-10-30T11:52:49.844Z,2.35
2022-10-30T11:55:20.911Z,2.58
2022-10-30T11:57:52.351Z,2.30
2022-10-30T12:00:23.647Z,2.50
2022-10-30T12:02:54.840Z,2.35
2022-10-30T12:05:33.961Z,2.20
2022-10-30T12:08:23.225Z,2.30
2022-10-30T12:11:01.770Z,2.75
2022-10-30T12:13:37.842Z,2.12
2022-10-30T12:16:14.174Z,2.35
2022-10-30T12:18:43.994Z,2.47
2022-10-30T12:21:19.962Z,2.00
2022-10-30T12:23:53.872Z,2.17
2022-10-30T12:26:24.093Z,2.90
2022-10-30T12:28:58.481Z,2.22
2022-10-30T12:31:35.878Z,2.08
2022-10-30T12:34:16.958Z,2.90
2022-10-30T12:36:49.182Z,2.78
2022-10-30T12:39:24.642Z,2.10
2022-10-30T12:42:01.509Z,1.92
2022-10-30T12:44:35.156Z,2.33
2022-10-30T12:47:14.108Z,2.62
2022-10-30T12:49:47.916Z,2.53
2022-10-30T12:52:21.100Z,2.72
2022-10-30T12:54:56.022Z,2.65
2022-10-30T12:57:28.044Z,2.15
2022-10-30T13:00:02.627Z,2.12
2022-10-30T13:02:43.565Z,2.37
2022-10-30T13:05:25.569Z,2.33
2022-10-30T13:08:03.829Z,1.98
2022-10-30T13:10:35.235Z,2.42
2022-10-30T13:13:11.108Z,2.45
2022-10-30T13:15:45.913Z,2.37
2022-10-30T13:18:18.930Z,2.20
2022-10-30T13:21:02.751Z,2.15
2022-10-30T13:23:40.242Z,2.17
2022-10-30T13:26:18.470Z,1.87
2022-10-30T13:28:54.856Z,2.08
2022-10-30T13:31:32.415Z,2.05
2022-10-30T13:34:09.068Z,2.72
2022-10-30T13:36:46.867Z,2.10
2022-10-30T13:39:23.482Z,2.50
2022-10-30T13:42:07.642Z,2.40
2022-10-30T13:44:49.990Z,2.37
2022-10-30T13:47:29.942Z,2.58
2022-10-30T13:50:12.407Z,2.10
2022-10-30T13:52:46.137Z,2.08
2022-10-30T13:55:20.368Z,2.85
2022-10-30T13:57:56.632Z,2.37
2022-10-30T14:00:30.873Z,2.53
2022-10-30T14:03:25.551Z,2.25
2022-10-30T14:06:11.732Z,2.67
2022-10-30T14:08:46.755Z,2.58
2022-10-30T14:11:15.586Z,2.58
2022-10-30T14:13:54.609Z,2.90
2022-10-30T14:16:42.862Z,2.78
2022-10-30T14:19:13.453Z,2.72
2022-10-30T14:21:53.011Z,2.55
2022-10-30T14:24:24.625Z,2.55
2022-10-30T14:26:55.992Z,2.30
2022-10-30T14:29:45.370Z,2.47
2022-10-30T14:32:36.989Z,3.00
2022-10-30T14:35:33.818Z,2.58
2022-10-30T14:38:29.879Z,2.47
2022-10-30T14:41:28.814Z,2.80
2022-10-30T14:44:07.474Z,2.45
2022-10-30T14:46:45.929Z,2.95
2022-10-30T14:49:35.026Z,2.62
2022-10-30T14:52:14.486Z,2.42
2022-10-30T14:54:48.970Z,2.37
2022-10-30T14:57:24.485Z,2.20
2022-10-30T15:00:25.828Z,2.42
2022-10-30T15:02:59.235Z,2.55
2022-10-30T15:05:44.271Z,2.87
2022-10-30T15:08:31.415Z,2.85
2022-10-30T15:11:25.076Z,2.97
2022-10-30T15:13:57.387Z,2.40
2022-10-30T15:16:29.010Z,3.08
2022-10-30T15:19:03.818Z,2.30
2022-10-30T15:21:34.897Z,2.60
2022-10-30T15:24:03.466Z,2.70
2022-10-30T15:26:36.991Z,2.58
2022-10-30T15:29:06.717Z,2.97
2022-10-30T15:31:34.954Z,3.10
2022-10-30T15:34:15.827Z,2.78
2022-10-30T15:36:44.417Z,2.87
2022-10-30T15:39:15.462Z,2.50
2022-10-30T15:41:47.355Z,2.55
2022-10-30T15:44:18.702Z,3.37
2022-10-30T15:46:48.930Z,3.33
2022-10-30T15:49:27.937Z,2.50
2022-10-30T15:51:56.859Z,2.75
2022-10-30T15:54:26.466Z,3.03
2022-10-30T15:59:52.541Z,3.20
2022-10-30T16:02:22.875Z,3.58
2022-10-30T16:04:53.069Z,3.95
2022-10-30T16:07:23.766Z,3.10
2022-10-30T16:09:56.861Z,3.65
2022-10-30T16:12:27.042Z,3.28
2022-10-30T16:14:56.601Z,3.20
2022-10-30T16:17:26.318Z,2.80
2022-10-30T16:20:01.445Z,3.65
2022-10-30T16:22:34.335Z,3.12
2022-10-30T16:25:07.333Z,3.58
2022-10-30T16:27:44.551Z,3.25
2022-10-30T16:30:15.048Z,3.62
2022-10-30T16:32:52.139Z,4.15
2022-10-30T16:35:24.257Z,3.58
2022-10-30T16:37:53.336Z,3.60
2022-10-30T16:40:26.633Z,3.30
2022-10-30T16:42:59.246Z,3.12
2022-10-30T16:45:49.416Z,3.47
2022-10-30T16:48:27.963Z,3.30
2022-10-30T16:51:03.301Z,3.87
2022-10-30T16:53:32.835Z,4.15
2022-10-30T16:56:01.316Z,4.18
2022-10-30T16:58:32.165Z,3.53
2022-10-30T17:01:05.597Z,4.25
2022-10-30T17:03:39.255Z,4.53
2022-10-30T17:06:27.198Z,4.78
2022-10-30T17:08:59.515Z,3.78
2022-10-30T17:11:41.945Z,3.25
2022-10-30T17:14:21.113Z,3.75
2022-10-30T17:16:55.080Z,3.17
2022-10-30T17:19:46.597Z,4.32
2022-10-30T17:22:20.483Z,6.30
2022-10-30T17:24:49.298Z,5.10
2022-10-30T17:27:30.511Z,6.10
2022-10-30T17:30:00.135Z,4.35
2022-10-30T17:32:42.608Z,3.83
2022-10-30T17:35:15.804Z,5.78
2022-10-30T17:37:46.127Z,4.97
2022-10-30T17:40:15.659Z,5.37
2022-10-30T17:42:44.542Z,5.07
2022-10-30T17:45:14.543Z,4.28
2022-10-30T17:47:42.920Z,19.00
2022-10-30T17:50:12.446Z,8.70
2022-10-30T17:52:40.870Z,5.22
2022-10-30T17:55:23.971Z,5.15
2022-10-30T17:57:52.782Z,4.75
2022-10-30T18:00:21.415Z,5.60
2022-10-30T18:02:50.142Z,4.90
2022-10-30T18:05:22.663Z,4.65
2022-10-30T18:07:51.357Z,4.47
2022-10-30T18:10:21.264Z,4.85
2022-10-30T18:12:49.758Z,4.20
2022-10-30T18:15:28.113Z,3.80
2022-10-30T18:17:56.625Z,3.85
2022-10-30T18:20:25.530Z,3.97
2022-10-30T18:22:55.524Z,4.25
2022-10-30T18:25:28.103Z,4.37
2022-10-30T18:27:56.458Z,4.55
2022-10-30T18:30:25.907Z,5.40
2022-10-30T18:32:54.764Z,7.12
2022-10-30T18:35:31.775Z,4.43
2022-10-30T18:38:02.495Z,5.00
2022-10-30T18:40:35.566Z,4.20
2022-10-30T18:43:10.517Z,5.22
2022-10-30T18:45:40.972Z,5.53
2022-10-30T18:48:09.959Z,5.55
2022-10-30T18:50:39.301Z,6.50
2022-10-30T18:53:15.650Z,5.97
2022-10-30T18:58:19.776Z,5.28
2022-10-30T19:01:11.109Z,5.45
2022-10-30T19:03:36.899Z,4.10
2022-10-30T19:06:05.879Z,3.95
2022-10-30T19:08:34.324Z,3.72
2022-10-30T19:11:04.157Z,4.03
2022-10-30T19:13:33.186Z,4.12
2022-10-30T19:16:01.748Z,7.97
2022-10-30T19:18:32.508Z,15.95
2022-10-30T19:21:06.560Z,13.93
2022-10-30T19:23:37.676Z,9.75
2022-10-30T19:26:07.989Z,5.82
2022-10-30T19:28:38.335Z,5.37
2022-10-30T19:31:07.672Z,4.80
2022-10-30T19:33:36.252Z,5.72
2022-10-30T19:36:05.776Z,4.55
2022-10-30T19:38:34.994Z,5.25
2022-10-30T19:41:03.516Z,3.67
2022-10-30T19:43:33.443Z,4.65
2022-10-30T19:46:02.005Z,4.37
2022-10-30T19:48:56.017Z,4.10
2022-10-30T19:51:18.961Z,3.87
2022-10-30T19:53:47.480Z,4.30
2022-10-30T19:56:17.478Z,4.25
2022-10-30T19:58:47.846Z,4.43
2022-10-30T20:01:17.030Z,5.10
2022-10-30T20:03:45.786Z,4.55
2022-10-30T20:06:15.004Z,4.50
2022-10-30T20:08:43.713Z,4.22
2022-10-30T20:11:12.416Z,5.32
2022-10-30T20:13:41.035Z,4.65
2022-10-30T20:16:12.272Z,5.20
2022-10-30T20:18:41.169Z,5.80
2022-10-30T20:21:13.983Z,5.90
2022-10-30T20:23:42.589Z,6.47
2022-10-30T20:26:24.097Z,6.55
2022-10-30T20:28:53.266Z,6.30
2022-10-30T20:31:23.394Z,6.82
2022-10-30T20:33:52.010Z,7.37
2022-10-30T20:36:20.790Z,6.65
2022-10-30T20:38:49.089Z,6.90
2022-10-30T20:41:22.441Z,7.10
2022-10-30T20:43:51.213Z,6.60
2022-10-30T20:46:19.955Z,6.82
2022-10-30T20:48:50.046Z,7.22
2022-10-30T20:51:19.146Z,6.60
2022-10-30T20:53:47.334Z,5.47
2022-10-30T20:56:15.772Z,6.10
2022-10-30T20:58:44.302Z,6.10
2022-10-30T21:01:13.690Z,6.45
2022-10-30T21:03:42.116Z,6.82
2022-10-30T21:06:13.389Z,6.40
2022-10-30T21:08:41.837Z,6.82
2022-10-30T21:11:10.128Z,7.60
2022-10-30T21:13:38.858Z,6.87
2022-10-30T21:16:09.614Z,7.15
2022-10-30T21:18:37.854Z,7.65
2022-10-30T21:21:08.746Z,7.20
2022-10-30T21:23:38.424Z,7.00
2022-10-30T21:26:09.785Z,7.03
2022-10-30T21:28:38.053Z,7.65
2022-10-30T21:31:09.564Z,6.20
2022-10-30T21:33:38.443Z,6.18
2022-10-30T21:36:12.309Z,7.50
2022-10-30T21:38:44.355Z,7.87
2022-10-30T21:41:15.158Z,7.40
2022-10-30T21:43:43.886Z,7.50
2022-10-30T21:46:13.795Z,8.43
2022-10-30T21:48:42.092Z,7.72
2022-10-30T21:51:12.568Z,7.30
2022-10-30T21:53:42.803Z,8.82
2022-10-30T21:56:12.868Z,9.88
2022-10-30T21:58:42.152Z,7.78
2022-10-30T22:01:15.607Z,8.13
2022-10-30T22:03:44.564Z,8.25
2022-10-30T22:06:14.408Z,9.45
2022-10-30T22:08:48.237Z,7.18
2022-10-30T22:11:17.594Z,7.93
2022-10-30T22:13:46.656Z,7.20
2022-10-30T22:16:16.416Z,7.10
2022-10-30T22:18:45.318Z,6.87
2022-10-30T22:21:14.809Z,7.12
2022-10-30T22:23:45.144Z,6.45
2022-10-30T22:26:15.872Z,7.00
2022-10-30T22:28:46.263Z,6.50
2022-10-30T22:31:17.355Z,6.18
2022-10-30T22:33:45.961Z,6.62
2022-10-30T22:36:17.111Z,6.72
2022-10-30T22:38:47.442Z,6.22
2022-10-30T22:41:18.185Z,5.47
2022-10-30T22:43:51.234Z,6.45
2022-10-30T22:46:20.155Z,6.97
2022-10-30T22:48:48.592Z,7.62
2022-10-30T22:51:19.660Z,7.05
2022-10-30T22:53:56.399Z,6.93
2022-10-30T22:56:27.047Z,6.60
2022-10-30T22:58:56.622Z,7.35
2022-10-30T23:01:30.152Z,6.80
2022-10-30T23:04:01.091Z,6.00
2022-10-30T23:06:31.480Z,6.28
2022-10-30T23:09:03.746Z,6.22
2022-10-30T23:11:33.153Z,5.62
2022-10-30T23:14:01.744Z,5.60
2022-10-30T23:16:30.330Z,6.00
2022-10-30T23:19:00.582Z,6.32
2022-10-30T23:21:30.825Z,5.10
2022-10-30T23:24:02.890Z,5.82
2022-10-30T23:26:33.796Z,5.47
2022-10-30T23:29:03.044Z,4.95
2022-10-30T23:31:34.427Z,5.10
2022-10-30T23:34:04.538Z,4.62
2022-10-30T23:36:33.255Z,5.12
2022-10-30T23:39:05.010Z,4.72
2022-10-30T23:41:35.093Z,4.82
2022-10-30T23:44:06.905Z,4.72
2022-10-30T23:46:36.472Z,5.37
2022-10-30T23:49:05.565Z,5.57
2022-10-30T23:51:34.620Z,5.15
2022-10-30T23:54:04.546Z,4.85
2022-10-30T23:56:33.005Z,4.80
2022-10-30T23:59:01.736Z,4.47
